Pagrindinis puslapis
METAR-TAF:

METAR-TAF

Oro uostai :

Al Khardj, Saudo Arabija

platuma: 24-03-19N, ilguma: 047-33-49E, Aukštis: 503 m

Dabartinis oras

Ataskaita buvo paskelbta 20 minutes, ne 03:00 UTC
Vėjas 7 kt iš Rytų/Šiaurės Rytų
Temperatūra 34°C
Drėgmė 16%
Slėgis 1004 hPa
Matomumas 10 km arba daugiau

METAR: OEKJ 010300Z 06007KT 9999 NSC 34/05 Q1004

Laikas: 06:20 (03:20 UTC)

Prognozė

Ataskaita buvo paskelbta 4 valandos ir 20 minutes, ne 23:00 UTC
Prognozė galioja nuo 01 metu 00 UTC su 02 metu 06 UTC
Vėjas 18 kt iš Šiaurės/Šiaurės Vakarų
Matomumas: 6000 m
Mažai debesys ne aukštis 3000 ft
Tapsmas
nuo 01 metu 10 UTC su 01 metu 12 UTC
Vėjas 16 kt iš Rytų
Laikinai
nuo 01 metu 10 UTC su 01 metu 18 UTC
Matomumas: 4000 m
Dulkes pustymas
Tapsmas
nuo 01 metu 20 UTC su 01 metu 22 UTC
Vėjas 10 kt iš Vakarų
Matomumas 10 km arba daugiau
nėra debesų žemiau 1500 m ir nėra kamuolinių lietaus debesų

TAF: OEKJ 312300Z 0100/0206 33018KT 6000 FEW030 BECMG 0110/0112 08016KT TEMPO 0110/0118 4000 BLDU BECMG 0120/0122 27010KT CAVOK

Orai ataskaitas ir orų prognozės (METAR, TAF).

turimą stotys yra geltonos ir raudonos taškus žemėlapyje.

Perkelti pele per norėdami pamatyti stoties vardą.

Tada spustelėkite, norėdami matyti oro stebėjimo ir prognozės.

Norėdami pakeisti žemėlapį: spustelėkite ant žalios mygtukų su juodo kryžiaus žemyn,; žalią mygtuką su brūkšneliu, jei norite nutolinti; arba žalių rodyklių gretimoms žemėlapius.


METAR-TAF: